Time;durP1;ratioP1;P1;durP2;ratioP2;P2;SDS_P1;SDS_P2;PMS_P1;PMS_P2;Temp;Humidity;BMP_temperature;BMP_pressure;BME280_temperature;BME280_humidity;BME280_pressure;Samples;Min_cycle;Max_cycle;Signal;HPM_P1;HPM_P2
2020/12/09 00:02:26;;;;;;;73.23;47.50;;;;;;;;;;4995194;28;20280;-84
2020/12/09 00:04:56;;;;;;;72.07;45.70;;;;;;;;;;4997670;28;20249;-85
2020/12/09 00:07:24;;;;;;;80.53;52.03;;;;;;;;;;4997681;28;20176;-86
2020/12/09 00:09:50;;;;;;;71.07;45.73;;;;;;;;;;4996198;28;20206;-85
2020/12/09 00:12:19;;;;;;;73.87;45.83;;;;;;;;;;4997595;28;20256;-86
2020/12/09 00:14:50;;;;;;;72.77;47.87;;;;;;;;;;4997726;28;20181;-85
2020/12/09 00:17:22;;;;;;;68.30;46.10;;;;;;;;;;4996231;28;20261;-85
2020/12/09 00:19:52;;;;;;;65.27;43.87;;;;;;;;;;4996047;28;20268;-86
2020/12/09 00:22:23;;;;;;;69.83;44.73;;;;;;;;;;4995971;28;20209;-86
2020/12/09 00:24:51;;;;;;;70.00;45.03;;;;;;;;;;4995966;28;20178;-86
2020/12/09 00:27:23;;;;;;;68.60;42.63;;;;;;;;;;4996147;28;20641;-86
2020/12/09 00:29:53;;;;;;;75.60;43.67;;;;;;;;;;4995432;28;20248;-87
2020/12/09 00:32:22;;;;;;;67.57;40.97;;;;;;;;;;4995658;28;20184;-87
2020/12/09 00:34:49;;;;;;;70.83;44.03;;;;;;;;;;4995737;28;20182;-87
2020/12/09 00:37:28;;;;;;;64.53;42.73;;;;;;;;;;4995667;28;20284;-87
2020/12/09 00:39:57;;;;;;;72.53;42.63;;;;;;;;;;4995505;28;20229;-87
2020/12/09 00:42:29;;;;;;;71.40;45.97;;;;;;;;;;4995615;28;20182;-86
2020/12/09 00:44:59;;;;;;;68.20;42.80;;;;;;;;;;4995328;28;20177;-86
2020/12/09 00:47:35;;;;;;;69.40;43.37;;;;;;;;;;4996606;28;20706;-87
2020/12/09 00:52:41;;;;;;;77.07;46.50;;;;;;;;;;4996577;28;20154;-86
2020/12/09 00:55:10;;;;;;;70.87;42.70;;;;;;;;;;4996473;28;20305;-86
2020/12/09 00:57:40;;;;;;;61.10;41.23;;;;;;;;;;4995176;28;20180;-86
2020/12/09 01:00:11;;;;;;;60.37;41.20;;;;;;;;;;4995056;28;20200;-85
2020/12/09 01:02:41;;;;;;;75.83;48.57;;;;;;;;;;4995412;28;20643;-86
2020/12/09 01:05:11;;;;;;;73.93;45.20;;;;;;;;;;4996339;28;20179;-86
2020/12/09 01:07:41;;;;;;;59.70;40.33;;;;;;;;;;4994900;28;20182;-86
2020/12/09 01:10:11;;;;;;;72.23;42.60;;;;;;;;;;4995092;28;20210;-87
2020/12/09 01:12:45;;;;;;;72.67;46.70;;;;;;;;;;4994922;28;20580;-86
2020/12/09 01:15:15;;;;;;;72.27;46.10;;;;;;;;;;4995681;28;20202;-86
2020/12/09 01:17:44;;;;;;;70.40;41.03;;;;;;;;;;4994905;28;20188;-86
2020/12/09 01:20:15;;;;;;;73.13;47.33;;;;;;;;;;4994720;28;20205;-86
2020/12/09 01:22:44;;;;;;;69.93;44.67;;;;;;;;;;4995016;28;20639;-86
2020/12/09 01:25:15;;;;;;;66.87;41.63;;;;;;;;;;4995904;28;20179;-85
2020/12/09 01:27:44;;;;;;;65.23;41.43;;;;;;;;;;4996010;28;20596;-86
2020/12/09 01:30:15;;;;;;;67.83;44.33;;;;;;;;;;4995706;28;20216;-85
2020/12/09 01:32:45;;;;;;;71.57;43.83;;;;;;;;;;4994551;28;20261;-86
2020/12/09 01:35:11;;;;;;;74.00;45.37;;;;;;;;;;4995682;28;20198;-84
2020/12/09 01:37:41;;;;;;;69.70;43.27;;;;;;;;;;4994340;28;20185;-86
2020/12/09 01:40:10;;;;;;;73.67;43.70;;;;;;;;;;4994271;28;20212;-86
2020/12/09 01:42:41;;;;;;;74.50;44.73;;;;;;;;;;4995846;28;20208;-86
2020/12/09 01:45:11;;;;;;;66.80;42.37;;;;;;;;;;4994329;28;20178;-86
2020/12/09 01:47:44;;;;;;;75.00;46.87;;;;;;;;;;4995529;28;20356;-86
2020/12/09 01:50:14;;;;;;;70.40;39.87;;;;;;;;;;4994113;28;20215;-86
2020/12/09 01:52:45;;;;;;;74.40;44.50;;;;;;;;;;4994154;28;20618;-86
2020/12/09 01:55:15;;;;;;;80.20;45.47;;;;;;;;;;4996122;28;20535;-86
2020/12/09 01:57:46;;;;;;;82.73;45.63;;;;;;;;;;4993983;28;20177;-86
2020/12/09 02:00:15;;;;;;;79.73;42.57;;;;;;;;;;4995240;28;20196;-86
2020/12/09 02:02:42;;;;;;;51.80;32.40;;;;;;;;;;4995280;28;20189;-86
2020/12/09 02:05:11;;;;;;;79.07;44.30;;;;;;;;;;4993950;28;20325;-86
2020/12/09 02:07:41;;;;;;;77.83;42.43;;;;;;;;;;4993936;28;20186;-86
2020/12/09 02:10:14;;;;;;;73.43;40.70;;;;;;;;;;4994063;28;20203;-86
2020/12/09 02:12:44;;;;;;;77.07;46.23;;;;;;;;;;4995121;28;20194;-86
2020/12/09 02:15:15;;;;;;;78.47;44.63;;;;;;;;;;4994044;28;20248;-86
2020/12/09 02:17:46;;;;;;;75.60;45.77;;;;;;;;;;4995201;28;20182;-86
2020/12/09 02:20:13;;;;;;;81.37;46.60;;;;;;;;;;4994824;28;20190;-86
2020/12/09 02:22:53;;;;;;;67.77;44.03;;;;;;;;;;4993737;28;20181;-86
2020/12/09 02:25:30;;;;;;;71.93;41.40;;;;;;;;;;4993099;28;20179;-86
2020/12/09 02:28:01;;;;;;;78.00;42.90;;;;;;;;;;4993493;28;20532;-86
2020/12/09 02:30:35;;;;;;;77.63;46.20;;;;;;;;;;4993584;28;20642;-86
2020/12/09 02:33:08;;;;;;;73.37;45.13;;;;;;;;;;4995033;28;20196;-86
2020/12/09 02:35:40;;;;;;;72.10;41.73;;;;;;;;;;4993430;28;20223;-86
2020/12/09 02:38:14;;;;;;;78.40;45.50;;;;;;;;;;4993262;28;20179;-86
2020/12/09 02:40:42;;;;;;;84.07;47.13;;;;;;;;;;4993301;28;20689;-86
2020/12/09 02:43:08;;;;;;;77.40;47.17;;;;;;;;;;4994548;28;20200;-86
2020/12/09 02:45:40;;;;;;;75.07;45.80;;;;;;;;;;4994503;28;20188;-86
2020/12/09 02:48:10;;;;;;;87.77;46.33;;;;;;;;;;4994771;28;20612;-86
2020/12/09 02:50:41;;;;;;;73.43;40.43;;;;;;;;;;4994268;28;20215;-86
2020/12/09 02:53:09;;;;;;;75.53;42.67;;;;;;;;;;4994389;28;20164;-86
2020/12/09 02:55:41;;;;;;;76.03;42.03;;;;;;;;;;4994488;28;20642;-86
2020/12/09 02:58:08;;;;;;;72.37;40.00;;;;;;;;;;4992941;28;20489;-86
2020/12/09 03:00:39;;;;;;;80.70;41.23;;;;;;;;;;4992838;28;20203;-86
2020/12/09 03:03:10;;;;;;;79.17;41.87;;;;;;;;;;4992910;28;20183;-86
2020/12/09 03:05:41;;;;;;;73.07;40.97;;;;;;;;;;4994097;28;20182;-86
2020/12/09 03:08:11;;;;;;;83.90;41.73;;;;;;;;;;4992699;28;20189;-86
2020/12/09 03:10:41;;;;;;;79.77;41.27;;;;;;;;;;4994134;28;20213;-86
2020/12/09 03:13:11;;;;;;;83.67;41.73;;;;;;;;;;4992687;28;20650;-86
2020/12/09 03:15:41;;;;;;;83.53;41.93;;;;;;;;;;4992766;28;20172;-86
2020/12/09 03:18:07;;;;;;;72.63;39.07;;;;;;;;;;4994223;28;20250;-86
2020/12/09 03:20:33;;;;;;;83.00;44.53;;;;;;;;;;4993930;28;20195;-86
2020/12/09 03:23:05;;;;;;;80.40;41.77;;;;;;;;;;4993814;28;20641;-86
2020/12/09 03:25:38;;;;;;;87.73;46.17;;;;;;;;;;4993777;28;20177;-86
2020/12/09 03:28:10;;;;;;;79.43;41.73;;;;;;;;;;4992527;28;20601;-86
2020/12/09 03:30:42;;;;;;;80.77;41.70;;;;;;;;;;4992263;28;20703;-86
2020/12/09 03:33:12;;;;;;;89.13;44.33;;;;;;;;;;4992546;28;20178;-86
2020/12/09 03:35:42;;;;;;;85.30;42.70;;;;;;;;;;4991769;28;20175;-86
2020/12/09 03:38:09;;;;;;;75.73;37.90;;;;;;;;;;4992471;28;20188;-86
2020/12/09 03:40:39;;;;;;;80.53;41.10;;;;;;;;;;4993614;28;20202;-86
2020/12/09 03:43:09;;;;;;;81.33;42.80;;;;;;;;;;4993865;28;20200;-86
2020/12/09 03:45:39;;;;;;;84.83;38.90;;;;;;;;;;4992414;28;20181;-86
2020/12/09 03:48:10;;;;;;;90.67;44.07;;;;;;;;;;4992428;28;20259;-86
2020/12/09 03:50:41;;;;;;;85.63;43.67;;;;;;;;;;4992561;28;20551;-86
2020/12/09 03:53:11;;;;;;;83.07;42.07;;;;;;;;;;4992256;28;20176;-86
2020/12/09 03:55:45;;;;;;;75.50;39.73;;;;;;;;;;4992670;28;20554;-86
2020/12/09 03:58:12;;;;;;;79.33;43.37;;;;;;;;;;4992313;28;20181;-86
2020/12/09 04:00:45;;;;;;;85.17;42.73;;;;;;;;;;4992657;28;20202;-86
2020/12/09 04:03:12;;;;;;;85.17;44.73;;;;;;;;;;4992276;28;20179;-86
2020/12/09 04:05:38;;;;;;;79.40;40.40;;;;;;;;;;4992155;28;20264;-86
2020/12/09 04:08:09;;;;;;;77.13;42.03;;;;;;;;;;4993419;28;20185;-86
2020/12/09 04:10:35;;;;;;;75.60;41.50;;;;;;;;;;4991984;28;20216;-86
2020/12/09 04:13:05;;;;;;;82.37;45.30;;;;;;;;;;4993300;28;20660;-86
2020/12/09 04:15:36;;;;;;;74.50;40.37;;;;;;;;;;4993486;28;20170;-86
2020/12/09 04:18:08;;;;;;;77.33;41.67;;;;;;;;;;4992113;28;20185;-86
2020/12/09 04:20:37;;;;;;;81.20;42.20;;;;;;;;;;4992054;28;20673;-86
2020/12/09 04:23:11;;;;;;;81.57;41.77;;;;;;;;;;4992169;28;20178;-86
2020/12/09 04:25:41;;;;;;;86.27;42.13;;;;;;;;;;4992054;28;20305;-86
2020/12/09 04:28:11;;;;;;;80.63;42.10;;;;;;;;;;4991984;28;20175;-86
2020/12/09 04:30:44;;;;;;;86.53;42.63;;;;;;;;;;4991741;28;20214;-86
2020/12/09 04:33:10;;;;;;;89.20;43.43;;;;;;;;;;4991952;28;20221;-86
2020/12/09 04:35:41;;;;;;;92.40;44.07;;;;;;;;;;4992275;28;20176;-86
2020/12/09 04:38:12;;;;;;;82.47;43.40;;;;;;;;;;4991864;28;20174;-86
2020/12/09 04:40:44;;;;;;;83.93;43.77;;;;;;;;;;4993114;28;20201;-86
2020/12/09 04:43:15;;;;;;;91.27;45.87;;;;;;;;;;4993320;28;20524;-86
2020/12/09 04:45:45;;;;;;;89.03;46.07;;;;;;;;;;4991848;28;20178;-86
2020/12/09 04:48:17;;;;;;;86.30;44.70;;;;;;;;;;4993892;28;20180;-86
2020/12/09 04:50:55;;;;;;;82.80;45.53;;;;;;;;;;4995217;28;20680;-86
2020/12/09 04:53:29;;;;;;;82.00;43.03;;;;;;;;;;4996888;28;20198;-86
2020/12/09 04:56:04;;;;;;;87.97;45.77;;;;;;;;;;4995565;28;20176;-86
2020/12/09 04:58:41;;;;;;;82.37;43.53;;;;;;;;;;4995247;28;20205;-86
2020/12/09 05:01:21;;;;;;;89.73;44.70;;;;;;;;;;4995156;28;20186;-86
2020/12/09 05:03:55;;;;;;;82.03;45.07;;;;;;;;;;4995937;28;20531;-86
2020/12/09 05:06:28;;;;;;;88.80;44.27;;;;;;;;;;4995053;28;20207;-86
2020/12/09 05:08:59;;;;;;;94.97;44.20;;;;;;;;;;4994981;28;20257;-86
2020/12/09 05:11:33;;;;;;;78.57;44.80;;;;;;;;;;4994806;28;20207;-86
2020/12/09 05:14:07;;;;;;;82.60;43.60;;;;;;;;;;4994943;28;20761;-86
2020/12/09 05:16:51;;;;;;;79.60;41.83;;;;;;;;;;4994901;28;20233;-86
2020/12/09 05:19:23;;;;;;;82.77;43.63;;;;;;;;;;4994836;28;20674;-86
2020/12/09 05:21:55;;;;;;;78.93;41.60;;;;;;;;;;4994714;28;20171;-86
2020/12/09 05:24:25;;;;;;;77.50;40.83;;;;;;;;;;4995885;28;20177;-86
2020/12/09 05:26:53;;;;;;;76.60;40.43;;;;;;;;;;4994627;28;20185;-86
2020/12/09 05:29:24;;;;;;;81.23;41.57;;;;;;;;;;5102693;23;21025;-82
2020/12/09 05:32:01;;;;;;;79.07;40.23;;;;;;;;;;4996068;28;20588;-82
2020/12/09 05:34:38;;;;;;;70.47;39.60;;;;;;;;;;4995902;28;20187;-82
2020/12/09 05:37:11;;;;;;;82.63;43.60;;;;;;;;;;4994706;28;20188;-82
2020/12/09 05:39:56;;;;;;;74.07;41.60;;;;;;;;;;4996337;28;20199;-82
2020/12/09 05:42:31;;;;;;;73.23;39.03;;;;;;;;;;4996100;28;20181;-82
2020/12/09 05:45:05;;;;;;;75.97;39.77;;;;;;;;;;4996126;28;20248;-82
2020/12/09 05:47:32;;;;;;;77.33;41.53;;;;;;;;;;4996428;28;20176;-82
2020/12/09 05:50:01;;;;;;;79.90;42.30;;;;;;;;;;4995952;28;20689;-82
2020/12/09 05:52:33;;;;;;;74.63;42.33;;;;;;;;;;4994689;28;20210;-81
2020/12/09 05:55:04;;;;;;;70.73;42.00;;;;;;;;;;4994490;28;20174;-82
2020/12/09 05:57:33;;;;;;;75.13;43.23;;;;;;;;;;4996350;28;20171;-82
2020/12/09 06:00:05;;;;;;;80.70;42.93;;;;;;;;;;4995385;28;20206;-82
2020/12/09 06:02:34;;;;;;;88.77;43.33;;;;;;;;;;4995870;28;20180;-81
2020/12/09 06:05:11;;;;;;;82.50;45.50;;;;;;;;;;4995570;28;20266;-82
2020/12/09 06:07:42;;;;;;;77.10;43.77;;;;;;;;;;4995603;28;20533;-82
2020/12/09 06:10:16;;;;;;;89.80;45.93;;;;;;;;;;4995778;28;20205;-82
2020/12/09 06:13:04;;;;;;;89.50;45.67;;;;;;;;;;4993905;28;20644;-82
2020/12/09 06:15:36;;;;;;;80.33;43.57;;;;;;;;;;4994714;28;20178;-82
2020/12/09 06:18:15;;;;;;;85.20;45.83;;;;;;;;;;4995291;28;20644;-82
2020/12/09 06:20:46;;;;;;;87.97;44.60;;;;;;;;;;4993921;28;20209;-82
2020/12/09 06:23:18;;;;;;;78.93;41.43;;;;;;;;;;4995236;28;20182;-82
2020/12/09 06:25:48;;;;;;;79.50;43.93;;;;;;;;;;4993821;28;20192;-82
2020/12/09 06:28:21;;;;;;;87.40;47.33;;;;;;;;;;4993982;28;20563;-82
2020/12/09 06:30:51;;;;;;;75.80;44.17;;;;;;;;;;4994815;28;20251;-82
2020/12/09 06:33:39;;;;;;;81.97;44.93;;;;;;;;;;4994993;28;20649;-82
2020/12/09 06:36:15;;;;;;;86.57;45.23;;;;;;;;;;4995315;28;20600;-82
2020/12/09 06:39:10;;;;;;;80.87;44.50;;;;;;;;;;4993800;28;20185;-82
2020/12/09 06:41:56;;;;;;;82.17;44.47;;;;;;;;;;4995603;28;20174;-83
2020/12/09 06:44:30;;;;;;;83.23;44.90;;;;;;;;;;4994188;28;20185;-82
2020/12/09 06:47:05;;;;;;;81.77;43.77;;;;;;;;;;4994589;28;20183;-83
2020/12/09 06:49:35;;;;;;;77.30;43.57;;;;;;;;;;4995065;28;20570;-82
2020/12/09 06:52:04;;;;;;;82.70;44.13;;;;;;;;;;4995024;28;20200;-82
2020/12/09 06:54:37;;;;;;;89.73;45.50;;;;;;;;;;4994950;28;20209;-82
2020/12/09 06:57:34;;;;;;;84.27;43.30;;;;;;;;;;4994600;28;20189;-82
2020/12/09 07:00:18;;;;;;;80.50;43.47;;;;;;;;;;4993120;28;20202;-82
2020/12/09 07:02:51;;;;;;;77.90;43.20;;;;;;;;;;4994538;28;20181;-82
2020/12/09 07:05:23;;;;;;;77.57;45.23;;;;;;;;;;4993091;28;20649;-82
2020/12/09 07:07:57;;;;;;;80.73;46.47;;;;;;;;;;4994564;28;20653;-82
2020/12/09 07:10:31;;;;;;;74.87;46.90;;;;;;;;;;4992888;28;20213;-82
2020/12/09 07:13:10;;;;;;;81.50;46.03;;;;;;;;;;4994470;28;20233;-82
2020/12/09 07:15:45;;;;;;;76.83;46.83;;;;;;;;;;4992918;28;20311;-82
2020/12/09 07:18:16;;;;;;;78.03;46.20;;;;;;;;;;4994692;28;20539;-81
2020/12/09 07:20:45;;;;;;;77.93;46.87;;;;;;;;;;4994238;28;20212;-82
2020/12/09 07:23:16;;;;;;;78.53;46.63;;;;;;;;;;4994180;28;20188;-82
2020/12/09 07:25:46;;;;;;;76.33;46.63;;;;;;;;;;4992932;28;20181;-82
2020/12/09 07:28:12;;;;;;;77.30;47.30;;;;;;;;;;4994175;28;20535;-82
2020/12/09 07:30:44;;;;;;;75.23;45.90;;;;;;;;;;4992602;28;20693;-82
2020/12/09 07:33:18;;;;;;;80.93;46.77;;;;;;;;;;4993999;28;20175;-82
2020/12/09 07:35:50;;;;;;;70.77;45.13;;;;;;;;;;4994353;28;20187;-82
2020/12/09 07:38:20;;;;;;;79.70;49.13;;;;;;;;;;4992675;28;20224;-82
2020/12/09 07:40:49;;;;;;;78.57;45.17;;;;;;;;;;4993898;28;20213;-82
2020/12/09 07:43:21;;;;;;;83.00;47.67;;;;;;;;;;4992814;28;20186;-82
2020/12/09 07:45:51;;;;;;;82.47;47.73;;;;;;;;;;4993725;28;20187;-82
2020/12/09 07:48:21;;;;;;;83.10;49.50;;;;;;;;;;4992653;28;20181;-82
2020/12/09 07:50:55;;;;;;;83.40;48.10;;;;;;;;;;4992464;28;20724;-82
2020/12/09 07:53:28;;;;;;;82.37;48.40;;;;;;;;;;4992776;28;20243;-82
2020/12/09 07:56:03;;;;;;;76.87;48.67;;;;;;;;;;4995108;28;20308;-82
2020/12/09 07:58:35;;;;;;;86.43;50.30;;;;;;;;;;4995213;28;20169;-82
2020/12/09 08:01:07;;;;;;;74.87;47.17;;;;;;;;;;4993591;28;20205;-82
2020/12/09 08:03:38;;;;;;;85.90;50.43;;;;;;;;;;4992434;28;20265;-82
2020/12/09 08:06:25;;;;;;;84.27;48.80;;;;;;;;;;4993878;28;20565;-82
2020/12/09 08:08:54;;;;;;;80.83;48.40;;;;;;;;;;4993730;28;20661;-82
2020/12/09 08:11:25;;;;;;;81.47;48.10;;;;;;;;;;4993361;28;20707;-82
2020/12/09 08:14:05;;;;;;;79.53;48.10;;;;;;;;;;4992342;28;20181;-82
2020/12/09 08:16:41;;;;;;;89.70;50.40;;;;;;;;;;4993109;28;20631;-82
2020/12/09 08:19:12;;;;;;;80.30;48.10;;;;;;;;;;4993165;28;20264;-82
2020/12/09 08:21:42;;;;;;;87.80;51.57;;;;;;;;;;4993623;28;20190;-82
2020/12/09 08:24:15;;;;;;;86.47;51.60;;;;;;;;;;4997316;28;20186;-82
2020/12/09 08:26:45;;;;;;;93.33;48.40;;;;;;;;;;4997537;28;20641;-82
2020/12/09 08:29:17;;;;;;;83.60;50.17;;;;;;;;;;4997217;28;20192;-82
2020/12/09 08:31:49;;;;;;;86.27;50.17;;;;;;;;;;4997133;28;20217;-82
2020/12/09 08:34:20;;;;;;;83.37;49.53;;;;;;;;;;4997192;28;20180;-82
2020/12/09 08:36:55;;;;;;;85.77;50.50;;;;;;;;;;4997167;28;20762;-82
2020/12/09 08:39:29;;;;;;;77.10;47.43;;;;;;;;;;4997233;28;20289;-82
2020/12/09 08:42:01;;;;;;;81.47;48.53;;;;;;;;;;4996446;28;20187;-82
2020/12/09 08:44:32;;;;;;;84.33;50.37;;;;;;;;;;4996946;28;20178;-82
2020/12/09 08:47:01;;;;;;;80.90;47.90;;;;;;;;;;4996334;28;20224;-82
2020/12/09 08:49:35;;;;;;;77.67;44.40;;;;;;;;;;4996849;28;20295;-82
2020/12/09 08:52:09;;;;;;;79.17;44.60;;;;;;;;;;4997144;28;20201;-81
2020/12/09 08:54:38;;;;;;;75.60;46.60;;;;;;;;;;4996900;28;20634;-81
2020/12/09 08:57:10;;;;;;;79.67;45.73;;;;;;;;;;4996643;28;20225;-81
2020/12/09 08:59:42;;;;;;;74.03;44.97;;;;;;;;;;4996886;28;20207;-81
2020/12/09 09:02:10;;;;;;;79.33;46.27;;;;;;;;;;4996736;28;20192;-82
2020/12/09 09:04:42;;;;;;;78.73;44.33;;;;;;;;;;4997237;28;20299;-82
2020/12/09 09:07:15;;;;;;;79.70;45.67;;;;;;;;;;4996666;28;20190;-82
2020/12/09 09:09:46;;;;;;;82.90;46.33;;;;;;;;;;4998046;28;20213;-82
2020/12/09 09:12:15;;;;;;;84.80;46.27;;;;;;;;;;4996521;28;20285;-81
2020/12/09 09:14:44;;;;;;;78.73;45.13;;;;;;;;;;4996691;28;20188;-81
2020/12/09 09:17:15;;;;;;;74.63;44.07;;;;;;;;;;4996464;28;20177;-81
2020/12/09 09:19:45;;;;;;;79.83;45.93;;;;;;;;;;4995184;28;20253;-81
2020/12/09 09:22:15;;;;;;;76.60;41.77;;;;;;;;;;4995167;28;20187;-81
2020/12/09 09:24:46;;;;;;;83.10;42.90;;;;;;;;;;4995153;28;20276;-82
2020/12/09 09:27:12;;;;;;;75.97;43.13;;;;;;;;;;4995051;28;20640;-82
2020/12/09 09:29:44;;;;;;;84.93;43.47;;;;;;;;;;4994748;28;20219;-81
2020/12/09 09:32:17;;;;;;;79.67;43.53;;;;;;;;;;4994862;28;20204;-81
2020/12/09 09:34:47;;;;;;;78.20;43.10;;;;;;;;;;4995277;28;20261;-81
2020/12/09 09:37:14;;;;;;;75.70;42.83;;;;;;;;;;4994776;28;20185;-81
2020/12/09 09:39:43;;;;;;;76.67;42.90;;;;;;;;;;4995997;28;20225;-81
2020/12/09 09:42:14;;;;;;;69.53;42.83;;;;;;;;;;4995677;28;20269;-81
2020/12/09 09:44:42;;;;;;;79.53;41.63;;;;;;;;;;4996085;28;20182;-81
2020/12/09 09:47:11;;;;;;;82.17;44.53;;;;;;;;;;4996006;28;20195;-81
2020/12/09 09:49:42;;;;;;;74.37;41.83;;;;;;;;;;4994886;28;20212;-81
2020/12/09 09:52:08;;;;;;;78.43;43.50;;;;;;;;;;4994718;28;20202;-81
2020/12/09 09:54:42;;;;;;;74.83;44.07;;;;;;;;;;4996138;28;20305;-81
2020/12/09 09:57:11;;;;;;;75.27;44.00;;;;;;;;;;4996364;28;20177;-81
2020/12/09 09:59:40;;;;;;;69.07;40.30;;;;;;;;;;4995593;28;20220;-80
2020/12/09 10:02:08;;;;;;;69.90;42.93;;;;;;;;;;4994643;28;20645;-81
2020/12/09 10:04:36;;;;;;;76.43;42.30;;;;;;;;;;4995642;28;20189;-80
2020/12/09 10:07:09;;;;;;;77.17;43.13;;;;;;;;;;4995919;28;20541;-82
2020/12/09 10:09:39;;;;;;;76.33;42.37;;;;;;;;;;4994372;28;20198;-81
2020/12/09 10:12:07;;;;;;;70.93;40.03;;;;;;;;;;4995872;28;20236;-81
2020/12/09 10:14:39;;;;;;;70.23;43.77;;;;;;;;;;4995648;28;20236;-82
2020/12/09 10:17:08;;;;;;;72.67;43.13;;;;;;;;;;4995738;28;20204;-82
2020/12/09 10:19:35;;;;;;;87.10;47.67;;;;;;;;;;4994522;28;20198;-81
2020/12/09 10:22:05;;;;;;;85.97;48.27;;;;;;;;;;4994392;28;20189;-81
2020/12/09 10:24:33;;;;;;;77.27;43.93;;;;;;;;;;4994139;28;20185;-81
2020/12/09 10:27:05;;;;;;;72.73;44.00;;;;;;;;;;4995446;28;20178;-81
2020/12/09 10:29:32;;;;;;;76.40;44.70;;;;;;;;;;4995222;28;20294;-81
2020/12/09 10:32:00;;;;;;;75.63;47.40;;;;;;;;;;4995710;28;20714;-81
2020/12/09 10:34:33;;;;;;;77.27;46.77;;;;;;;;;;4995259;28;20591;-81
2020/12/09 10:37:04;;;;;;;84.63;49.27;;;;;;;;;;4994055;28;20273;-81
2020/12/09 10:39:39;;;;;;;77.83;47.73;;;;;;;;;;4995249;28;20257;-82
2020/12/09 10:42:09;;;;;;;74.63;47.93;;;;;;;;;;4994311;28;20182;-82
2020/12/09 10:44:38;;;;;;;76.47;46.70;;;;;;;;;;4994949;28;20269;-81
2020/12/09 10:47:07;;;;;;;78.97;48.07;;;;;;;;;;4994814;28;20183;-82
2020/12/09 10:49:44;;;;;;;76.67;46.77;;;;;;;;;;4995314;28;20204;-81
2020/12/09 10:52:13;;;;;;;80.90;47.93;;;;;;;;;;4993592;28;20232;-82
2020/12/09 10:54:48;;;;;;;85.57;47.10;;;;;;;;;;4994500;28;20177;-82
2020/12/09 10:57:19;;;;;;;80.77;45.87;;;;;;;;;;4994722;28;20173;-81
2020/12/09 10:59:50;;;;;;;78.13;48.17;;;;;;;;;;4994404;28;20262;-82
2020/12/09 11:02:24;;;;;;;94.00;49.93;;;;;;;;;;4994834;28;20166;-82
2020/12/09 11:04:51;;;;;;;79.73;46.50;;;;;;;;;;4993412;28;20235;-82
2020/12/09 11:07:22;;;;;;;89.17;48.17;;;;;;;;;;4994493;28;20174;-81
2020/12/09 11:09:54;;;;;;;85.50;49.13;;;;;;;;;;4993377;28;20209;-82
2020/12/09 11:12:24;;;;;;;83.53;48.50;;;;;;;;;;4994847;28;20205;-81
2020/12/09 11:14:57;;;;;;;76.87;47.10;;;;;;;;;;4994180;28;20188;-81
2020/12/09 11:17:35;;;;;;;83.37;48.10;;;;;;;;;;4994285;28;20658;-82
2020/12/09 11:20:04;;;;;;;87.43;47.97;;;;;;;;;;4994098;28;20658;-82
2020/12/09 11:22:35;;;;;;;78.80;48.30;;;;;;;;;;4994293;28;20529;-82
2020/12/09 11:25:08;;;;;;;81.77;50.97;;;;;;;;;;4994249;28;20182;-82
2020/12/09 11:27:35;;;;;;;87.47;48.70;;;;;;;;;;4992883;28;20185;-82
2020/12/09 11:30:07;;;;;;;79.63;49.77;;;;;;;;;;5016273;23;20232;-87
2020/12/09 11:32:41;;;;;;;88.63;50.90;;;;;;;;;;4993720;28;20207;-87
2020/12/09 11:35:12;;;;;;;82.70;49.57;;;;;;;;;;4993974;28;20189;-86
2020/12/09 11:37:41;;;;;;;79.00;48.03;;;;;;;;;;4993697;28;20174;-86
2020/12/09 11:40:12;;;;;;;74.37;48.47;;;;;;;;;;4992468;28;20228;-86
2020/12/09 11:42:45;;;;;;;86.63;50.33;;;;;;;;;;4992396;28;20181;-86
2020/12/09 11:45:15;;;;;;;76.20;45.93;;;;;;;;;;4993860;28;20292;-86
2020/12/09 11:47:45;;;;;;;79.60;51.03;;;;;;;;;;4993618;28;20245;-87
2020/12/09 11:50:15;;;;;;;79.67;49.73;;;;;;;;;;4992321;28;20195;-87
2020/12/09 11:52:45;;;;;;;78.80;49.30;;;;;;;;;;4992310;28;20178;-87
2020/12/09 11:55:16;;;;;;;88.27;49.90;;;;;;;;;;4992425;28;20181;-87
2020/12/09 11:57:46;;;;;;;79.07;49.17;;;;;;;;;;4993813;28;20174;-87
2020/12/09 12:00:14;;;;;;;82.83;50.37;;;;;;;;;;4997514;28;20252;-88
2020/12/09 12:02:50;;;;;;;81.00;50.53;;;;;;;;;;4997531;28;20646;-88
2020/12/09 12:05:24;;;;;;;80.00;44.83;;;;;;;;;;4996270;28;20556;-88
2020/12/09 12:07:55;;;;;;;83.93;47.40;;;;;;;;;;4996335;28;20178;-88
2020/12/09 12:10:21;;;;;;;76.83;47.13;;;;;;;;;;4996638;28;20681;-88
2020/12/09 12:12:51;;;;;;;76.03;45.73;;;;;;;;;;4996117;28;20261;-88
2020/12/09 12:15:21;;;;;;;71.63;43.73;;;;;;;;;;4997346;28;20178;-88
2020/12/09 12:17:52;;;;;;;74.80;45.40;;;;;;;;;;4997513;28;20546;-88
2020/12/09 12:20:24;;;;;;;74.60;44.77;;;;;;;;;;4997121;28;20246;-88
2020/12/09 12:23:00;;;;;;;67.30;44.73;;;;;;;;;;4995908;28;20170;-88
2020/12/09 12:25:31;;;;;;;70.03;43.27;;;;;;;;;;4995979;28;20733;-88
2020/12/09 12:28:01;;;;;;;70.00;43.17;;;;;;;;;;4995791;28;20260;-88
2020/12/09 12:30:35;;;;;;;78.60;45.87;;;;;;;;;;4995697;28;20296;-88
2020/12/09 12:33:10;;;;;;;69.47;43.57;;;;;;;;;;4996839;28;20166;-88
2020/12/09 12:35:41;;;;;;;70.43;45.07;;;;;;;;;;4996500;28;20177;-88
2020/12/09 12:38:12;;;;;;;63.77;43.47;;;;;;;;;;4996898;28;20179;-88
2020/12/09 12:40:45;;;;;;;69.47;42.47;;;;;;;;;;4995481;28;20228;-87
2020/12/09 12:43:12;;;;;;;75.73;45.60;;;;;;;;;;4995622;28;20182;-88
2020/12/09 12:45:45;;;;;;;70.20;43.17;;;;;;;;;;4995475;28;20654;-88
2020/12/09 12:48:14;;;;;;;75.80;46.53;;;;;;;;;;4995470;28;20183;-87
2020/12/09 12:50:41;;;;;;;74.20;45.77;;;;;;;;;;4996545;28;20202;-87
2020/12/09 12:53:07;;;;;;;70.47;46.47;;;;;;;;;;4996596;28;20166;-87
2020/12/09 12:55:35;;;;;;;77.07;44.87;;;;;;;;;;4995320;28;20186;-87
2020/12/09 12:58:02;;;;;;;74.90;47.17;;;;;;;;;;4996542;28;20228;-86
2020/12/09 13:00:28;;;;;;;75.03;45.20;;;;;;;;;;4995189;28;20671;-87
2020/12/09 13:02:54;;;;;;;69.13;45.87;;;;;;;;;;4995650;28;20650;-86
2020/12/09 13:05:20;;;;;;;73.33;45.13;;;;;;;;;;4996778;28;20173;-87
2020/12/09 13:07:47;;;;;;;70.40;45.90;;;;;;;;;;4994880;28;20251;-86
2020/12/09 13:10:14;;;;;;;68.90;45.77;;;;;;;;;;4995089;28;20252;-86
2020/12/09 13:12:40;;;;;;;77.90;46.97;;;;;;;;;;4994952;28;20213;-87
2020/12/09 13:15:06;;;;;;;63.23;43.13;;;;;;;;;;4996442;28;20184;-87
2020/12/09 13:17:32;;;;;;;76.93;47.43;;;;;;;;;;4996219;28;20658;-86
2020/12/09 13:19:59;;;;;;;74.70;44.97;;;;;;;;;;4994864;28;20232;-87
2020/12/09 13:22:25;;;;;;;75.33;45.87;;;;;;;;;;4996101;28;20225;-87
2020/12/09 13:24:51;;;;;;;73.53;46.40;;;;;;;;;;4994740;28;20267;-87
2020/12/09 13:27:18;;;;;;;71.40;46.47;;;;;;;;;;4994664;28;20189;-87
2020/12/09 13:29:45;;;;;;;70.33;45.30;;;;;;;;;;4995805;28;20282;-87
2020/12/09 13:32:12;;;;;;;69.70;46.50;;;;;;;;;;4994600;28;20198;-87
2020/12/09 13:34:38;;;;;;;69.67;46.33;;;;;;;;;;4994892;28;20186;-87
2020/12/09 13:37:04;;;;;;;70.80;46.90;;;;;;;;;;4994558;28;20191;-87
2020/12/09 13:39:31;;;;;;;75.00;48.03;;;;;;;;;;4995971;28;20174;-87
2020/12/09 13:41:57;;;;;;;74.07;48.00;;;;;;;;;;4994469;28;20186;-87
2020/12/09 13:44:23;;;;;;;78.83;47.67;;;;;;;;;;4995644;28;20665;-87
2020/12/09 13:46:54;;;;;;;77.43;48.47;;;;;;;;;;4995593;28;20178;-88
2020/12/09 13:49:22;;;;;;;74.90;48.07;;;;;;;;;;4994777;28;20178;-88
2020/12/09 13:51:54;;;;;;;75.60;49.67;;;;;;;;;;4994266;28;20213;-88
2020/12/09 13:54:22;;;;;;;77.47;47.13;;;;;;;;;;4994438;28;20183;-88
2020/12/09 13:56:51;;;;;;;70.77;46.17;;;;;;;;;;4994929;28;20313;-88
2020/12/09 13:59:17;;;;;;;71.43;47.47;;;;;;;;;;4994144;28;20254;-87
2020/12/09 14:01:50;;;;;;;81.90;47.77;;;;;;;;;;4995904;28;20174;-88
2020/12/09 14:04:26;;;;;;;78.70;48.80;;;;;;;;;;4994092;28;20553;-88
2020/12/09 14:06:58;;;;;;;81.90;49.67;;;;;;;;;;4993963;28;20269;-88
2020/12/09 14:09:29;;;;;;;84.83;54.07;;;;;;;;;;4995206;28;20193;-88
2020/12/09 14:11:56;;;;;;;82.40;52.73;;;;;;;;;;4995448;28;20301;-88
2020/12/09 14:14:23;;;;;;;86.10;52.80;;;;;;;;;;4995177;28;20563;-88
2020/12/09 14:16:50;;;;;;;91.30;52.70;;;;;;;;;;4994969;28;20654;-88
2020/12/09 14:19:27;;;;;;;87.57;52.97;;;;;;;;;;4993600;28;20184;-88
2020/12/09 14:22:00;;;;;;;75.80;50.57;;;;;;;;;;4993503;28;20187;-88
2020/12/09 14:24:31;;;;;;;83.47;50.40;;;;;;;;;;4993690;28;20183;-88
2020/12/09 14:27:04;;;;;;;82.80;50.53;;;;;;;;;;4994934;28;20549;-88
2020/12/09 14:29:30;;;;;;;73.10;47.40;;;;;;;;;;4994722;28;20199;-88
2020/12/09 14:31:59;;;;;;;80.37;51.70;;;;;;;;;;4995002;28;20246;-88
2020/12/09 14:34:31;;;;;;;80.53;49.07;;;;;;;;;;4993793;28;20678;-88
2020/12/09 14:37:01;;;;;;;89.30;50.83;;;;;;;;;;4994654;28;20182;-88
2020/12/09 14:39:35;;;;;;;87.60;51.90;;;;;;;;;;4994772;28;20176;-88
2020/12/09 14:42:05;;;;;;;90.93;53.73;;;;;;;;;;4994611;28;20174;-87